KMWC/MWC METAR and TAF weather

Enter ICAO airport designator
Station Type Date Time Source
KMWC METAR 2019/07/15 19:45 UTC NOAA

KMWC 151945Z 22012G16KT 10SM SKC 30/16 A2997


Station Type Date Time Source
KMWC Decoded METAR 2019/07/15 19:45 UTC NOAA

Milwaukee / Timmerman, WI, United States (KMWC) 43-07N 088-02W
Jul 15, 2019 - 03:45 PM EDT / 2019.07.15 1945 UTC
Wind: from the SW (220 degrees) at 14 MPH (12 KT) gusting to 18 MPH (16 KT):0
Visibility: 10 mile(s):0
Sky conditions: clear
Temperature: 86 F (30 C)
Dew Point: 60 F (16 C)
Relative Humidity: 42%
Pressure (altimeter): 29.97 in. Hg (1014 hPa)
ob: KMWC 151945Z 22012G16KT 10SM SKC 30/16 A2997
cycle: 20

Station Type Date Time Source
KMWC TAF UTC NOAA

Error!

Example: see airport list